ADDS METAR Data INFO
IDs: Format: Raw Decoded Include TAF

Data at: 0717 UTC 24 Jun 2018

KMHL 240715Z AUTO 00000KT 10SM CLR 21/19 A2985 RMK AO2
KMHL 240655Z AUTO 00000KT 10SM CLR 21/20 A2985 RMK AO2
KMHL 240635Z AUTO 00000KT 10SM CLR 21/20 A2983 RMK AO2
KMHL 240615Z AUTO 00000KT 10SM CLR 21/20 A2984 RMK AO2
KMHL 240555Z AUTO 00000KT 10SM CLR 22/20 A2985 RMK AO2
KMHL 240535Z AUTO 00000KT 10SM CLR 22/20 A2985 RMK AO2
KMHL 240515Z AUTO 00000KT 10SM CLR 22/20 A2984 RMK AO2 LTG DSNT W
KMHL 240455Z AUTO 00000KT 10SM CLR 22/20 A2984 RMK AO2
KMHL 240435Z AUTO 00000KT 10SM CLR 22/20 A2985 RMK AO2
KMHL 240415Z AUTO 00000KT 10SM CLR 22/20 A2985 RMK AO2
KMHL 240355Z AUTO 00000KT 10SM CLR 22/20 A2985 RMK AO2
KMHL 240335Z AUTO 00000KT 10SM CLR 23/20 A2985 RMK AO2
KMHL 240315Z AUTO 00000KT 10SM CLR 23/20 A2985 RMK AO2
KMHL 240255Z AUTO 00000KT 10SM CLR 23/20 A2984 RMK AO2
KMHL 240235Z AUTO 00000KT 10SM CLR 23/20 A2983 RMK AO2
KMHL 240215Z AUTO 00000KT 10SM CLR 25/19 A2982 RMK AO2
KMHL 240155Z AUTO 00000KT 10SM CLR 25/20 A2982 RMK AO2
KMHL 240135Z AUTO 00000KT 10SM CLR 25/20 A2981 RMK AO2
KMHL 240115Z AUTO 00000KT 10SM CLR 26/22 A2981 RMK AO2
KMHL 240055Z AUTO 00000KT 10SM CLR 27/19 A2981 RMK AO2
KMHL 240035Z AUTO 00000KT 10SM CLR 27/19 A2980 RMK AO2
KMHL 240015Z AUTO 00000KT 10SM CLR 28/20 A2980 RMK AO2
KMHL 232355Z AUTO 00000KT 10SM CLR 28/19 A2980 RMK AO2
KMHL 232335Z AUTO 00000KT 10SM CLR 28/18 A2980 RMK AO2
KMHL 232315Z AUTO 00000KT 10SM CLR 28/19 A2980 RMK AO2
KMHL 232255Z AUTO 00000KT 10SM CLR 28/20 A2980 RMK AO2
KMHL 232235Z AUTO 00000KT 10SM SCT045 28/20 A2980 RMK AO2
KMHL 232215Z AUTO 00000KT 10SM SCT043 28/20 A2981 RMK AO2
KMHL 232155Z AUTO 00000KT 10SM SCT046 28/19 A2981 RMK AO2
KMHL 232135Z AUTO 00000KT 10SM SCT046 27/19 A2982 RMK AO2
KMHL 232115Z AUTO 00000KT 10SM CLR 28/20 A2981 RMK AO2
KMHL 232055Z AUTO 00000KT 10SM CLR 27/18 A2981 RMK AO2
KMHL 232035Z AUTO 00000KT 10SM SCT034 SCT048 SCT060 28/20 A2981 RMK AO2
KMHL 232015Z AUTO 00000KT 10SM SCT034 BKN048 BKN050 27/20 A2982 RMK AO2
KMHL 231955Z AUTO 00000KT 10SM BKN050 BKN075 27/20 A2982 RMK AO2
KMHL 231935Z AUTO 00000KT 10SM SCT029 SCT045 BKN050 27/20 A2982 RMK AO2
KMHL 231915Z AUTO 00000KT 10SM SCT029 SCT036 BKN048 26/19 A2982 RMK AO2
KMHL 231855Z AUTO 00000KT 10SM SCT050 SCT120 26/19 A2982 RMK AO2
KMHL 231835Z AUTO 00000KT 10SM SCT027 SCT032 SCT050 25/19 A2983 RMK AO2
KMHL 231815Z AUTO 00000KT 10SM SCT029 BKN046 OVC050 25/19 A2983 RMK AO2
KMHL 231755Z AUTO 00000KT 10SM SCT027 SCT036 BKN050 26/19 A2983 RMK AO2
KMHL 231735Z AUTO 00000KT 10SM SCT038 BKN048 25/18 A2983 RMK AO2
KMHL 231715Z AUTO 00000KT 10SM BKN038 OVC046 25/19 A2982 RMK AO2
KMHL 231655Z AUTO 00000KT 10SM SCT023 SCT038 SCT047 24/18 A2982 RMK AO2
KMHL 231635Z AUTO 00000KT 10SM SCT023 25/18 A2982 RMK AO2
KMHL 231615Z AUTO 00000KT 10SM CLR 25/18 A2982 RMK AO2
KMHL 231555Z AUTO 00000KT 10SM CLR 24/18 A2982 RMK AO2
KMHL 231535Z AUTO 00000KT 10SM CLR 23/18 A2981 RMK AO2
KMHL 231515Z AUTO 00000KT 10SM CLR 22/18 A2982 RMK AO2
KMHL 231455Z AUTO 00000KT 10SM CLR 22/18 A2982 RMK AO2
KMHL 231435Z AUTO 00000KT 10SM CLR 21/20 A2982 RMK AO2
KMHL 231415Z AUTO 00000KT 10SM CLR 21/20 A2982 RMK AO2
KMHL 231355Z AUTO 00000KT 10SM CLR 21/19 A2982 RMK AO2
KMHL 231335Z AUTO 00000KT 10SM CLR 20/20 A2982 RMK AO2
KMHL 231315Z AUTO 00000KT 10SM CLR 20/20 A2982 RMK AO2
KMHL 231255Z AUTO 00000KT 5SM BR CLR 20/20 A2981 RMK AO2
KMHL 231235Z AUTO 00000KT 5SM BR CLR 19/19 A2982 RMK AO2
KMHL 231215Z AUTO 00000KT 5SM BR CLR 19/18 A2982 RMK AO2
KMHL 231155Z AUTO 00000KT 4SM BR CLR 19/18 A2982 RMK AO2
KMHL 231135Z AUTO 00000KT 2 1/2SM BR SCT055 18/18 A2982 RMK AO2
KMHL 231115Z AUTO 00000KT 2 1/2SM BR SCT055 18/18 A2982 RMK AO2
KMHL 231055Z AUTO 00000KT 3SM BR CLR 17/17 A2981 RMK AO2
KMHL 231035Z AUTO 00000KT 4SM BR SCT055 18/18 A2981 RMK AO2
KMHL 231015Z AUTO 00000KT 7SM BKN055 18/18 A2982 RMK AO2
KMHL 230955Z AUTO 00000KT 7SM CLR 18/18 A2982 RMK AO2
KMHL 230935Z AUTO 00000KT 10SM CLR 18/18 A2980 RMK AO2
KMHL 230915Z AUTO 00000KT 10SM CLR 18/18 A2977 RMK AO2
KMHL 230855Z AUTO 00000KT 10SM SCT050 19/18 A2977 RMK AO2
KMHL 230835Z AUTO 00000KT 10SM OVC050 20/19 A2978 RMK AO2
KMHL 230815Z AUTO 00000KT 10SM OVC050 20/19 A2979 RMK AO2
KMHL 230755Z AUTO 00000KT 10SM OVC050 20/19 A2980 RMK AO2
KMHL 230735Z AUTO 00000KT 10SM SCT043 OVC050 20/19 A2981 RMK AO2
KMHL 230715Z AUTO 00000KT 10SM SCT034 SCT043 BKN050 20/19 A2980 RMK AO2
KMHL 230655Z AUTO 00000KT 10SM SCT034 OVC050 20/19 A2980 RMK AO2
KMHL 230635Z AUTO 00000KT 10SM SCT026 SCT032 BKN050 20/19 A2981 RMK AO2 LTG DSNT NW
KMHL 230615Z AUTO 00000KT 10SM SCT024 SCT030 OVC050 20/19 A2983 RMK AO2
KMHL 230555Z AUTO 00000KT 10SM BKN024 BKN050 20/19 A2984 RMK AO2 LTG DSNT W
KMHL 230535Z AUTO 00000KT 10SM SCT024 BKN048 21/19 A2985 RMK AO2
KMHL 230515Z AUTO 00000KT 10SM OVC048 21/19 A2985 RMK AO2
KMHL 230455Z AUTO 00000KT 10SM OVC046 21/19 A2985 RMK AO2
KMHL 230435Z AUTO 00000KT 10SM OVC044 21/19 A2983 RMK AO2
KMHL 230415Z AUTO 00000KT 10SM OVC042 21/19 A2982 RMK AO2
KMHL 230355Z AUTO 00000KT 10SM OVC042 21/19 A2982 RMK AO2
KMHL 230335Z AUTO 00000KT 10SM OVC042 21/19 A2980 RMK AO2
KMHL 230315Z AUTO 00000KT 10SM OVC042 21/18 A2981 RMK AO2
KMHL 230255Z AUTO 00000KT 10SM OVC040 21/18 A2980 RMK AO2
KMHL 230235Z AUTO 00000KT 10SM OVC040 21/18 A2979 RMK AO2
KMHL 230215Z AUTO 00000KT 10SM OVC038 21/18 A2979 RMK AO2
KMHL 230155Z AUTO 00000KT 10SM OVC038 21/18 A2979 RMK AO2
KMHL 230135Z AUTO 00000KT 10SM OVC038 21/18 A2979 RMK AO2
KMHL 230115Z AUTO 00000KT 10SM OVC038 22/18 A2979 RMK AO2
KMHL 230055Z AUTO 00000KT 10SM OVC036 22/18 A2979 RMK AO2
KMHL 230035Z AUTO 00000KT 10SM OVC034 22/18 A2979 RMK AO2
KMHL 230015Z AUTO 00000KT 10SM SCT032 OVC040 22/18 A2979 RMK AO2
KMHL 222355Z AUTO 00000KT 10SM OVC038 22/18 A2979 RMK AO2
KMHL 222335Z AUTO 00000KT 10SM OVC036 22/18 A2980 RMK AO2
KMHL 222315Z AUTO 00000KT 10SM BKN027 OVC034 22/18 A2980 RMK AO2
KMHL 222255Z AUTO 00000KT 10SM SCT021 OVC027 22/18 A2980 RMK AO2
KMHL 222235Z AUTO 00000KT 10SM BKN021 BKN025 OVC030 22/18 A2980 RMK AO2
KMHL 222215Z AUTO 00000KT 10SM SCT021 BKN029 BKN037 22/18 A2980 RMK AO2
KMHL 222155Z AUTO 00000KT 10SM SCT021 SCT028 BKN037 23/18 A2981 RMK AO2
KMHL 222135Z AUTO 00000KT 10SM BKN021 BKN028 OVC035 22/18 A2981 RMK AO2
KMHL 222115Z AUTO 00000KT 10SM OVC021 22/18 A2981 RMK AO2
KMHL 222055Z AUTO 00000KT 10SM SCT020 OVC025 22/18 A2982 RMK AO2
KMHL 222035Z AUTO 00000KT 10SM SCT019 OVC025 22/18 A2983 RMK AO2
KMHL 222015Z AUTO 00000KT 10SM SCT017 BKN024 OVC030 22/18 A2983 RMK AO2
KMHL 221955Z AUTO 00000KT 10SM SCT019 BKN024 OVC029 22/18 A2983 RMK AO2
KMHL 221935Z AUTO 00000KT 10SM BKN019 BKN026 OVC037 22/18 A2983 RMK AO2